TOP > 外国特許検索

外国特許検索

Display results per page Option
Patent state
Country

Clear

Hits 4661 results

No. Application number
Gazette No
Country
Title
Release Date
Update Date
Information Provider
2201 2008JP002058 WO 2009/016842 世界知的所有権機関(WIPO) MICROFLUIDICDEVICE FOR TRAPPING SINGLE CELL 2011/04/13 2011/04/22 東京農工大学
2202 2008JP071740 WO 2009/069790 世界知的所有権機関(WIPO) ORDINARY-TEMPERATURE-PHOSPHORESCENT ORGANIC MATERIAL, REVERSIBLY THERMOSENSITIVE RECORDING MATERIAL, REVERSIBLY THERMOSENSITIVE RECORDING MEDIUM, AND METHOD OF RECORDING IN REVERSIBLY THERMOSENSITIVE RECORDING MEDIUM 2011/04/13 2011/05/24 東京農工大学
2203 2009JP057739 WO 2009/128526 世界知的所有権機関(WIPO) APPARATUS FOR THE IDENTIFICATION OF RIBONUCLEIC ACID, METHOD FOR THE IDENTIFICATION OF RIBONUCLEIC ACID AND PROGRAM AND SYSTEM FOR THE IDENTIFICATION OF RIBONUCLEIC ACID 2011/12/27 2011/12/28 東京農工大学
2204 2010JP050674 WO 2011016260 世界知的所有権機関(WIPO) NOVEL GLYCOSYLTRANSFERASE, NOVEL GLYCOSYLTRANSFERASE GENE, AND NOVEL GLYCOSYL DONOR COMPOUND 2011/12/28 2019/04/23 東京農工大学
2205 2010JP054049 WO 2010/104130 世界知的所有権機関(WIPO) SPHERICAL ULTRASOUND MOTOR AND CONTROL METHOD FOR A SPHERICAL ULTRASOUND MOTOR 2012/02/07 2012/03/01 東京農工大学
2206 2010JP065227 WO 2011/099191 世界知的所有権機関(WIPO) PHOTOINDUCED CARRIER LIFETIME MEASURING METHOD, LIGHT INCIDENCE EFFICIENCY MEASURING METHOD, PHOTOINDUCED CARRIER LIFETIME MEASURING DEVICE, AND LIGHT INCIDENCE EFFICIENCY MEASURING DEVICE 2012/05/08 2012/05/31 東京農工大学
2207 2011JP069226 WO 2012/026550 世界知的所有権機関(WIPO) HOLOGRAM DISPLAY MODULE AND STEREOSCOPIC DISPLAY DEVICE 2012/05/15 2012/05/31 東京農工大学
2208 2012JP067192 WO 2013/005795 世界知的所有権機関(WIPO) 3D DISPLAY DEVICE 2013/01/23 2013/01/23 東京農工大学
2209 2012JP067575 WO 2013/011869 世界知的所有権機関(WIPO) PROPERTY MEASURING DEVICE FOR OBJECT TO BE MEASURED AND PROPERTY MEASURING METHOD FOR OBJECT TO BE MEASURED 新技術説明会 2013/04/01 2013/04/01 東京農工大学
2210 2012JP077469 WO 2013/077137 世界知的所有権機関(WIPO) MEASUREMENT DEVICE AND MEASUREMENT METHOD 2013/06/12 2013/06/12 東京農工大学
2211 2012JP078245 WO 2013/088853 世界知的所有権機関(WIPO) OLIGONUCLEOTIDE, GLUCOCORTICOID SENSITIVITY ENHANCER, DRUG COMPOSITION, AND EXPRESSION VECTOR 2013/07/16 2013/07/16 東京農工大学
2212 2012JP082038 WO 2013/089088 世界知的所有権機関(WIPO) PHOTOINDUCED CARRIER LIFETIME MEASUREMENT DEVICE AND PHOTOINDUCED CARRIER LIFETIME MEASUREMENT METHOD 2013/07/16 2013/07/16 東京農工大学
2213 2013JP055497 WO 2013129603 世界知的所有権機関(WIPO) METHOD FOR DESIGNATING DISEASE RELATING TO AMOUNT OF TDP-43 EXISTING IN CELLS 新技術説明会 2013/10/17 2019/04/23 東京農工大学
2214 2013JP054151 WO 2013/125571 世界知的所有権機関(WIPO) DEVICE FOR MEASURING HEAT RADIATION OF OBJECT TO BE MEASURED, METHOD FOR MEASURING HEAT RADIATION OF OBJECT TO BE MEASURED, AND CELL FOR MEASURING HEAT RADIATION 2013/12/05 2013/12/05 東京農工大学
2215 2013JP067404 WO 2014003013 世界知的所有権機関(WIPO) ADSORPTION REFRIGERATOR 新技術説明会 2014/01/29 2015/08/25 東京農工大学
2216 2014JP053096 WO 2014126068 世界知的所有権機関(WIPO) CATALYST PRECURSOR AND METHOD FOR SYNTHESIZING ASYMMETRIC CHAIN COMPOUND 新技術説明会 2015/02/05 2015/08/25 東京農工大学
2217 2014JP051852 WO 2014119578 世界知的所有権機関(WIPO) STORAGE TYPE SOLAR POWER GENERATION DEVICE AND STORAGE TYPE SOLAR POWER GENERATION SYSTEM 2015/02/09 2015/08/25 東京農工大学
2218 2014JP057716 WO 2014156939 世界知的所有権機関(WIPO) PLANT CULTIVATION METHOD 2015/04/16 2015/08/25 東京農工大学
2219 2014JP004314 WO 2015045266 世界知的所有権機関(WIPO) MEASUREMENT DEVICE 2015/07/02 2015/08/25 東京農工大学
2220 2014JP004655 WO 2015037232 世界知的所有権機関(WIPO) NITRIDE SEMICONDUCTOR CRYSTAL, MANUFACTURING METHOD, AND MANUFACTURING APPARATUS 2015/07/13 2019/04/23 東京農工大学
2221 2015JP053615 WO 2015125665 世界知的所有権機関(WIPO) PHOTODETECTION DEVICE, PHOTODETECTION METHOD AND PROGRAM 新技術説明会 2015/11/26 2019/04/23 東京農工大学
2222 2015JP071343 WO 2016021442 世界知的所有権機関(WIPO) DISPLAY DEVICE 2016/05/20 2016/05/20 東京農工大学
2223 2015JP071677 WO 2016031484 世界知的所有権機関(WIPO) ADSORPTION REFRIGERATOR AND ADSORPTION REFRIGERATION METHOD 2016/06/02 2016/06/02 東京農工大学
2224 2015JP073277 WO 2016027840 世界知的所有権機関(WIPO) IMAGE PROCESSING DEVICE, METHOD, AND PROGRAM 新技術説明会 2016/06/02 2016/06/02 東京農工大学
2225 2015JP082318 WO 2016080415 世界知的所有権機関(WIPO) MEASUREMENT DEVICE AND SENSOR SYSTEM 2016/08/10 2016/08/10 東京農工大学
2226 2016JP051457 WO 2016117564 世界知的所有権機関(WIPO) PROGRAM, INFORMATION STORAGE MEDIUM, AND RECOGNITION DEVICE 2016/09/23 2019/02/01 東京農工大学
2227 2016JP056142 WO 2016152399 世界知的所有権機関(WIPO) ABSORPTION REFRIGERATOR AND DEHUMIDIFIER 2016/11/11 2019/02/01 東京農工大学
2228 2016JP064392 WO 2016182081 世界知的所有権機関(WIPO) LIQUID JET DISCHARGE DEVICE AND LIQUID JET DISCHARGE METHOD 2017/03/29 2019/01/30 東京農工大学
2229 2016JP079925 WO 2017069001 世界知的所有権機関(WIPO) PROGRAM, INFORMATION STORAGE MEDIUM, AND INFORMATION PROCESSING APPARATUS 2017/05/29 2017/05/29 東京農工大学
2230 2016JP087558 WO 2017104805 世界知的所有権機関(WIPO) PROGRAM, INFORMATION STORAGE MEDIUM, AND CHARACTER STRING RECOGNITION DEVICE 2017/07/07 2017/07/07 東京農工大学
2231 2016JP088738 WO 2017111166 世界知的所有権機関(WIPO) THERAPEUTIC AGENT FOR INTRACELLULAR TDP-43 CONTENT-RELATED DISEASE 2017/07/13 2019/04/23 東京農工大学
2232 2016JP081587 WO 2017073563 世界知的所有権機関(WIPO) HEATING MEMBER AND HEATING DEVICE 2017/11/21 2017/11/21 東京農工大学
2233 2017JP022164 WO 2017217498 世界知的所有権機関(WIPO) ENDOSCOPE EXPANSION DEVICE 2018/01/24 2018/01/24 東京農工大学
2234 2017JP025436 WO 2018012546 世界知的所有権機関(WIPO) MANUFACTURING METHOD FOR SEMICONDUCTOR LAMINATED FILM, AND SEMICONDUCTOR LAMINATED FILM 2018/11/01 2019/02/01 東京農工大学
2235 2018JP029395 WO 2019031446 世界知的所有権機関(WIPO) ANTIGEN COMPOSITION 新技術説明会 2019/04/25 2019/04/25 東京農工大学
2236 2018JP023039 WO 2018230736 世界知的所有権機関(WIPO) SENSOR AND METHOD FOR MANUFACTURING SENSOR 新技術説明会 2019/05/07 2019/05/07 東京農工大学
2237 2018JP018011 WO 2018216472 世界知的所有権機関(WIPO) HEAT TRANSPORTATION DEVICE AND FURNACE USING SAME 新技術説明会 2019/05/08 2019/05/08 東京農工大学
2238 2019JP007944 WO 2019168127 世界知的所有権機関(WIPO) WOOD AND METHOD FOR PRODUCING WOOD 新技術説明会 2019/10/28 2019/10/28 東京農工大学
2239 2019JP016860 WO 2019220863 世界知的所有権機関(WIPO) OPTICAL PULSE PAIR GENERATION DEVICE, LIGHT DETECTION DEVICE, AND LIGHT DETECTION METHOD 2020/01/30 2020/01/30 東京農工大学
2240 2019JP022418 WO 2019235543 世界知的所有権機関(WIPO) POROUS BODY AND MATERIAL FOR MEDICAL USE 新技術説明会 2020/06/02 2020/06/02 東京農工大学
2241 2019JP009128 WO 2019176732 世界知的所有権機関(WIPO) PRODUCTION METHOD FOR TETRAHYDROISOQUINOLINE RING-CONTAINING COMPOUND 2020/06/03 2020/06/03 東京農工大学
2242 2019JP036830 WO 2020059824 世界知的所有権機関(WIPO) BORON-CONTAINING CONJUGATED POLYENE COMPOUND, METHOD FOR PRODUCING SAME, AND METHOD FOR PRODUCING CONJUGATED POLYENE COMPOUND 新技術説明会 2020/06/03 2020/06/03 東京農工大学
2243 2020JP004682 WO2020162575 世界知的所有権機関(WIPO) BORON-CONTAINING COMPOUND AND METHOD FOR PRODUCING SAME 新技術説明会 2020/10/28 2020/10/28 東京農工大学
2244 2008JP053735 WO 2009/028221 世界知的所有権機関(WIPO) QUANTITATIVE MOTOR FUNCTION EVALUATION SYSTEM 2012/04/27 2012/05/31 東京都医学総合研究所
2245 2010JP004037 WO 2011/055469 世界知的所有権機関(WIPO) METHOD AND DEVICE FOR PRODUCING MAGNETIC RESONANCE ELASTOGRAM (MRE) AND BALL VIBRATOR FOR PRODUCING MAGNETIC RESONANCE ELASTOGRAM (MRE) 新技術説明会 2011/05/18 2011/05/23 東京都立大学
2246 2012JP074514 WO 2013/047494 世界知的所有権機関(WIPO) HIGHLY ACCURATE CORRELATING METHOD FOR PHASE EQUILIBRIUM DATA, AND PHASE BALANCE CALCULATION METHOD 2013/04/17 2013/04/17 東京都立大学
2247 2013JP062737 WO 2013/162054 世界知的所有権機関(WIPO) COMPOSITION FOR CONTROLLING CHROMATIN STRUCTURE 新技術説明会 2013/12/16 2013/12/16 東京都立大学
2248 2013JP073538 WO 2014038511 世界知的所有権機関(WIPO) OXIDATION CATALYST, AND METHOD FOR PRODUCING ORGANIC OXIDE 新技術説明会 2014/09/26 2015/07/14 東京都立大学
2249 2014JP056873 WO 2014148378 世界知的所有権機関(WIPO) SURFACTANT-LIKE COMPOUND 新技術説明会 2015/03/24 2015/07/21 東京都立大学
2250 2017JP009072 WO 2017154927 世界知的所有権機関(WIPO) GOLD COMPOSITE MATERIAL, METHOD FOR MANUFACTURING SAME, AND GOLD NANOCATALYST 2017/09/21 2019/04/22 東京都立大学
2251 2017JP030928 WO 2018047676 世界知的所有権機関(WIPO) ATOMIC OSCILLATOR 2018/04/20 2018/04/20 東京都立大学
2252 2017JP029772 WO 2018038049 世界知的所有権機関(WIPO) SURFACE-MODIFIED NANOFIBERS, ELECTROLYTE MEMBRANE, METHOD FOR PRODUCING ELECTROLYTE MEMBRANE, MEMBRANE ELECTRODE ASSEMBLY AND SOLID POLYMER FUEL CELL 新技術説明会 2018/04/20 2019/04/22 東京都立大学
2253 2018JP002476 WO 2018139580 世界知的所有権機関(WIPO) ELECTRODE COMPOSITION, ELECTRODE, PRODUCTION METHOD FOR SAID ELECTRODE, AND BATTERY 2018/11/02 2019/02/01 東京都立大学
2254 2018JP000577 WO 2018131673 世界知的所有権機関(WIPO) NOVEL TISSUE REGENERATION MATERIAL AND METHOD FOR PRODUCING SAME 2018/11/02 2019/02/01 東京都立大学
2255 2017JP005161 WO 2018123074 世界知的所有権機関(WIPO) PHOTOGRAPHING APPARATUS 2019/05/07 2019/05/07 東京都立大学
2256 2018JP027777 WO 2019022095 世界知的所有権機関(WIPO) ELECTROLYTE COMPOSITION, ELECTROLYTE FILM, AND CELL 2019/05/07 2019/05/07 東京都立大学
2257 2006JP320078 WO 2007/043462 世界知的所有権機関(WIPO) BRAIN FUNCTION ANALYSIS METHOD AND BRAIN FUNCTION ANALYSIS PROGRAM 実績あり 2007/09/21 2008/10/15 東京電機大学
2258 2006JP315980 WO 2007/026533 世界知的所有権機関(WIPO) SOLUBLE TABLET CONTAINING NANOSILICON PARTICLES AND PROCESS FOR PRODUCTION THEREOF 2007/09/21 2008/10/15 東京電機大学
2259 2004JP010734 WO 2005/025740 世界知的所有権機関(WIPO) LIGHT- AND HEAT-RESPONSIVE ADSORBENTS AND PROCESS FOR RECOVERY OF SOLUTES 2007/09/21 2008/10/15 東京電機大学
2260 2007JP054234 WO 2007/111086 世界知的所有権機関(WIPO) DISASTER RECOVERY DEVICE, DISASTER RECOVERY PROGRAM, ITS RECORDING MEDIUM, AND DISASTER RECOVERY SYSTEM 新技術説明会 2008/04/11 2008/10/16 東京電機大学
2261 2006JP325808 WO 2007/083489 世界知的所有権機関(WIPO) IN-PLANE EXPOSURE DEVICE AND IN-PLANE EXPOSURE METHOD 2008/04/11 2008/10/16 東京電機大学
2262 2007JP062019 WO 2008/026363 世界知的所有権機関(WIPO) DOUBLE REFRACTION MEASURING EQUIPMENT AND DOUBLE REFRACTION MEASURING METHOD 実績あり 2009/04/17 2013/07/01 東京電機大学
2263 2008JP055132 WO 2008/114829 世界知的所有権機関(WIPO) ENCRYPTION DEVICE, DECRYPTION DEVICE, ENCRYPTION PROGRAM, DECRYPTION PROGRAM, AND RECORDING MEDIUM 2011/01/13 2011/01/19 東京電機大学
2264 2015JP050618 WO 2015174100 世界知的所有権機関(WIPO) PACKET TRANSFER DEVICE, PACKET TRANSFER SYSTEM, AND PACKET TRANSFER METHOD 2016/04/13 2016/04/13 東京電機大学
2265 2009JP055479 WO 2009119455 世界知的所有権機関(WIPO) CANCER CELL MOTILITY AND CANCER CELL INFILTRATION INHIBITOR 2011/04/13 2019/04/24 東北大学
2266 2009JP003758 WO 2010/026701 世界知的所有権機関(WIPO) OSTEOGENESIS PROMOTER COMPRISING [4-(METHYLTHIO)PHENYLTHIO]METHANEBISPHOSPHONIC ACID OR PHARMACEUTICALLY ACCEPTABLE SALT THEREOF AS ACTIVE INGREDIENT 2011/05/10 2011/05/25 東北大学
2267 2009JP003995 WO 2010/021148 世界知的所有権機関(WIPO) OPTICAL DEVICE AND METHOD FOR SHAPE AND GRADIENT DETECTION AND/OR MEASUREMENT AND ASSOCIATED DEVICE 2011/05/10 2011/05/25 東北大学
2268 2009JP058835 WO 2009/139382 世界知的所有権機関(WIPO) SOLID ELECTROLYTE, METHOD FOR PRODUCING THE SAME, AND SECONDARY BATTERY COMPRISING SOLID ELECTROLYTE 2011/05/10 2011/05/25 東北大学
2269 2009JP059212 WO 2010/007830 世界知的所有権機関(WIPO) METHOD FOR IMAGING STRUCTURE DEFECT, DEVICE FOR IMAGING STRUCTURE DEFECT, METHOD FOR IMAGING BUBBLE OR LESION, AND DEVICE FOR IMAGING BUBBLE OR LESION 2011/05/10 2011/05/25 東北大学
2270 2009JP065358 WO 2010/026996 世界知的所有権機関(WIPO) METHOD OF FORMING FINE CRYSTAL GRAINS IN NITROGEN-DOPED Co-Cr-Mo ALLOY AND NITROGEN-DOPED Co-Cr-Mo ALLOY 新技術説明会 2011/05/10 2011/05/25 東北大学
2271 2009JP069612 WO 2010/084662 世界知的所有権機関(WIPO) LOAD MEASURING APPARATUS 2011/05/10 2011/05/25 東北大学
2272 2009JP070353 WO 2010/064693 世界知的所有権機関(WIPO) SEMICONDUCTOR DETECTOR FOR TWO-DIMENSIONALLY DETECTING RADIATION POSITION AND TWO-DIMENSIONAL RADIATION POSITION DETECTION METHOD USING SAME 新技術説明会 2011/05/10 2011/05/25 東北大学
2273 2010JP050008 WO 2010/109924 世界知的所有権機関(WIPO) LH-TYPE BISPECIFIC ANTIBODY 2011/05/10 2011/05/25 東北大学
2274 2010JP005687 WO 2011/033784 世界知的所有権機関(WIPO) SIGNAL EXTRACTING APPARATUS 2011/11/09 2011/12/02 東北大学
2275 2010JP063793 WO 2011/021594 世界知的所有権機関(WIPO) SUSTAINED DRUG DELIVERY SYSTEM 新技術説明会 2011/11/09 2011/12/02 東北大学
2276 2010JP065991 WO 2011/030916 世界知的所有権機関(WIPO) PHASE CHANGE MATERIAL AND PHASE CHANGE MEMORY ELEMENT 2011/11/09 2011/12/02 東北大学
2277 2009JP062558 WO 2010/005062 世界知的所有権機関(WIPO) FUNCTIONAL DEVICE AND MANUFACTURING METHOD THEREFOR 2011/12/27 2011/12/28 東北大学
2278 2009JP070135 WO 2010/092724 世界知的所有権機関(WIPO) ELECTRICAL GENERATOR 2011/12/28 2011/12/28 東北大学
2279 2010JP067598 WO 2011/043402 世界知的所有権機関(WIPO) SEMICONDUCTOR DEVICE 2011/12/28 2011/12/28 東北大学
2280 93413309 8674079 アメリカ合衆国 Cancer cell migration and cancer cell invasion inhibitor 2012/01/06 2018/07/19 東北大学
2281 200913060593 8460485 アメリカ合衆国 Method of forming fine grains of Co-Cr-Mo alloy with nitrogen addition and Co-Cr-Mo alloy with nitrogen addition 2012/01/06 2018/07/19 東北大学
2282 2010JP070828 WO 2011/062287 世界知的所有権機関(WIPO) INSERTION DEVICE AND ENDOSCOPE 新技術説明会 2012/01/12 2012/02/01 東北大学
2283 2010JP064880 WO 2011/027762 世界知的所有権機関(WIPO) WIRING CONNECTION METHOD AND FUNCTIONAL DEVICE 2012/01/12 2012/02/01 東北大学
2284 2011JP006057 WO 2012/086114 世界知的所有権機関(WIPO) MACROLIDE COMPOUND HAVING ANTICANCER EFFECT 2012/03/21 2012/07/25 東北大学
2285 2011JP051325 WO 2011/093274 世界知的所有権機関(WIPO) SUBSTRATE WITH TRANSPARENT CONDUCTIVE MULTILAYER STRUCTURE AND PROCESS FOR PRODUCING SAME 2012/03/22 2012/04/05 東北大学
2286 2010JP068761 WO 2011/092909 世界知的所有権機関(WIPO) METAL MEMBER MANUFACTURING METHOD, AND METAL MEMBER 新技術説明会 2012/03/26 2012/04/05 東北大学
2287 2011JP057420 WO 2011/118800 世界知的所有権機関(WIPO) POROUS STRUCTURE PROVIDED WITH PATTERN THAT IS COMPOSED OF CONDUCTIVE POLYMER, AND METHOD FOR PRODUCING SAME 2012/05/07 2012/05/31 東北大学
2288 2011JP000638 WO 2011/096230 世界知的所有権機関(WIPO) MAGNETIC PARTICLES, PROCESS FOR PRODUCING SAME, AND MEDICINAL PREPARATION INCLUDING MAGNETIC PARTICLES 2012/05/08 2012/05/31 東北大学
2289 2010JP070127 WO 2011062112 世界知的所有権機関(WIPO) HIGHLY-FUNCTIONAL MUTANT OF HUMANIZED ANTI-EGFR ANTIBODY VARIABLE REGION 2012/05/24 2019/04/24 東北大学
2290 2011JP061066 WO 2011/142458 世界知的所有権機関(WIPO) SEMICONDUCTOR INTEGRATED CIRCUIT AND METHOD OF PRODUCING SAME 新技術説明会 2012/05/24 2012/05/31 東北大学
2291 2011JP066007 WO 2012/008500 世界知的所有権機関(WIPO) SIGNAL-PROCESSING DEVICE, SIGNAL-PROCESSING PROGRAM, AND COMPUTER-READABLE RECORDING MEDIUM WITH A SIGNAL-PROCESSING PROGRAM RECORDED THEREON 2012/05/24 2012/05/31 東北大学
2292 2011JP068619 WO 2012/023568 世界知的所有権機関(WIPO) BORIDE HAVING CHEMICAL COMPOSITION NA-SI-B, AND POLYCRYSTALLINE REACTION SINTERED PRODUCT OF BORIDE AND PROCESS FOR PRODUCTION THEREOF 2012/05/24 2012/05/31 東北大学
2293 2011JP064594 WO 2012/002290 世界知的所有権機関(WIPO) PROTEIN-ENCLOSED CARBON NANOTUBE FILM, AND SENSOR AND POWER-GENERATING DEVICE EACH EQUIPPED WITH THE CARBON NANOTUBE FILM AS ELECTRODE 2012/05/24 2012/05/31 東北大学
2294 2011JP059876 WO 2011/132756 世界知的所有権機関(WIPO) ELECTROENCEPHALOGRAM ELECTRODE UNIT FOR SMALL ANIMALS AND MEASUREMENT SYSTEM USING SAME 2012/07/03 2013/10/21 東北大学
2295 2011JP079664 WO 2012/086697 世界知的所有権機関(WIPO) NANOPOROUS CERAMIC COMPOSITE METAL 2012/07/11 2012/07/25 東北大学
2296 2011JP079728 WO 2012/090840 世界知的所有権機関(WIPO) MICROWAVE BAND BOOSTER RECTIFIER CIRCUIT, AND WIRELESS TAG DEVICE AND WIRELESS TAG SYSTEM EMPLOYING SAME 2012/07/19 2012/07/25 東北大学
2297 2011JP062324 WO 2012/008228 世界知的所有権機関(WIPO) METHOD FOR OXIDIZING ALCOHOLS 2012/09/20 2013/09/17 東北大学
2298 2011JP064954 WO 2012/002456 世界知的所有権機関(WIPO) METHOD FOR CONTROLLING HYDROTHERMAL SYNTHESIS REACTION USING ALDEHYDE 2012/09/20 2013/09/17 東北大学
2299 2011JP065712 WO 2012/008383 世界知的所有権機関(WIPO) MAGNETIC PUMP 2012/09/20 2012/09/20 東北大学
2300 2012JP055615 WO 2012/121230 世界知的所有権機関(WIPO) ACOUSTIC WAVE TO SPIN CURRENT CONVERSION ELEMENT 2012/09/26 2012/09/26 東北大学

PAGE TOP